Date,TemperatureHighF,TemperatureAvgF,TemperatureLowF,DewpointHighF,DewpointAvgF,DewpointLowF,HumidityHigh,HumidityAvg,HumidityLow,PressureMaxIn,PressureMinIn,WindSpeedMaxMPH,WindSpeedAvgMPH,GustSpeedMaxMPH,PrecipitationSumIn
2013-1-1,23.9,20.4,14.8,19.9,16.8,12.6,91,86,74,30.38,30.20,19,6,20,0.00
2013-1-2,32.2,22.4,14.1,26.8,18.8,11.7,94,86,71,30.38,30.24,16,4,16,0.00
2013-1-3,33.2,24.6,16.5,24.9,20.6,14.3,94,85,66,30.54,30.37,11,2,11,0.00
2013-1-4,45.3,30.3,19.6,27.4,22.5,16.6,90,74,45,30.47,30.26,22,8,22,0.00
2013-1-5,45.9,35.7,28.4,31.8,27.8,21.1,87,73,54,30.30,30.10,25,9,25,0.00
2013-1-6,48.6,34.9,21.8,25.7,22.8,17.9,87,63,38,30.44,30.25,20,5,20,0.00
2013-1-7,51.8,39.6,30.1,27.5,24.7,21.5,71,56,36,30.25,30.00,30,14,30,0.00
2013-1-8,54.6,41.4,32.0,33.7,30.1,25.3,85,65,42,30.21,29.93,29,10,30,0.00
2013-1-9,51.7,39.7,26.9,35.5,31.0,22.8,89,72,49,30.43,30.20,17,5,17,0.00
2013-1-10,46.4,43.4,39.9,45.8,41.3,33.2,99,93,61,30.27,29.70,26,10,26,0.44
2013-1-11,56.9,48.9,36.4,47.9,42.9,21.3,99,82,30,29.84,29.48,30,16,32,0.00
2013-1-12,36.2,25.5,18.5,31.6,16.3,10.2,84,68,59,30.19,29.84,23,10,23,0.00
2013-1-13,27.0,18.1,11.3,11.3,8.1,4.4,79,65,46,30.44,30.16,24,6,24,0.00
2013-1-14,29.7,20.7,11.1,16.1,11.1,7.2,86,68,47,30.57,30.41,14,2,14,0.00
2013-1-15,34.1,25.2,17.0,15.6,13.6,10.9,80,62,44,30.43,30.23,7,2,8,0.00
2013-1-16,52.8,33.8,18.4,33.4,23.6,13.1,82,67,47,30.29,30.09,13,4,14,0.00
2013-1-17,53.4,39.5,27.2,34.0,29.0,24.1,89,68,42,30.53,30.29,12,4,12,0.00
2013-1-18,58.6,44.5,32.5,34.0,31.2,27.8,83,62,37,30.40,30.03,36,15,36,0.00
2013-1-19,60.6,45.3,31.8,32.2,28.6,24.8,87,56,26,30.25,30.00,17,6,18,0.00
2013-1-20,44.4,32.3,21.1,27.4,20.9,11.4,87,64,42,30.45,30.21,25,8,25,0.00
2013-1-21,35.6,24.2,14.7,15.5,12.9,10.2,82,63,42,30.48,30.32,18,4,18,0.00
2013-1-22,40.9,25.7,14.5,20.0,13.8,7.8,79,62,41,30.37,30.24,21,6,21,0.00
2013-1-23,53.9,34.1,21.5,29.7,21.4,14.7,78,61,38,30.40,30.17,25,6,25,0.00
2013-1-24,29.6,22.6,15.3,21.5,12.5,5.8,88,67,37,30.45,30.19,24,10,24,0.00
2013-1-25,51.2,36.2,22.1,26.9,23.0,17.8,87,61,38,30.33,30.20,9,2,10,0.00
2013-1-26,57.1,46.0,34.8,39.2,29.3,20.5,84,54,25,30.26,29.98,28,10,28,0.00
2013-1-27,66.1,50.3,42.6,57.6,46.6,39.1,98,88,68,29.99,29.68,33,15,37,0.01
2013-1-28,71.8,57.5,40.1,60.5,49.8,37.8,98,78,38,29.79,29.57,38,15,38,0.00
2013-1-29,64.6,39.8,32.3,60.2,36.6,30.2,94,88,65,29.65,29.49,25,10,27,0.00
2013-1-30,32.3,26.1,20.4,30.7,21.6,16.1,95,83,68,30.02,29.63,33,11,35,0.00
2013-1-31,27.0,21.1,12.5,21.7,14.5,6.0,84,75,61,30.51,30.00,27,6,27,0.00
2013-2-1,34.7,23.2,12.7,15.1,10.4,7.1,80,60,37,30.49,30.21,24,8,27,0.00
2013-2-2,52.4,40.0,27.1,35.5,28.1,14.7,88,63,44,30.31,30.20,18,6,18,0.00
2013-2-3,55.1,43.9,32.2,30.2,26.1,22.1,75,51,30,30.29,29.82,27,9,27,0.00
2013-2-4,49.2,41.3,29.6,33.0,30.0,24.8,83,65,48,29.96,29.79,22,7,22,0.00
2013-2-5,61.2,43.1,27.5,33.5,27.7,23.6,88,60,27,30.05,29.91,15,5,17,0.00
2013-2-6,58.4,48.8,35.7,53.8,41.7,27.5,95,77,48,30.05,29.80,31,12,31,0.00
2013-2-7,54.7,47.0,33.9,53.1,40.4,29.1,98,79,48,30.20,29.79,27,9,27,0.21
2013-2-8,41.1,32.6,26.4,36.0,29.7,25.2,98,90,75,30.36,30.15,19,7,20,0.00
2013-2-9,48.0,40.2,35.0,41.3,36.3,31.5,97,86,75,30.16,29.64,35,16,36,0.00
2013-2-10,46.7,41.0,33.6,44.8,32.4,25.0,97,72,51,30.05,29.45,42,16,42,0.03
2013-2-11,43.0,34.2,26.6,25.0,22.0,19.8,82,62,44,30.25,30.05,17,4,17,0.00
2013-2-12,40.7,34.9,29.1,26.2,23.9,20.5,83,65,49,30.21,30.01,9,3,10,0.00
2013-2-13,55.7,38.6,22.7,27.5,23.0,19.0,95,59,26,30.02,29.87,24,6,24,0.00
2013-2-14,46.9,38.5,29.9,34.0,26.7,19.3,83,64,41,30.31,29.92,27,6,27,0.00
2013-2-15,39.3,29.4,19.0,20.0,17.1,11.9,87,62,40,30.45,30.31,26,7,26,0.00
2013-2-16,47.3,31.1,14.5,28.5,18.8,10.2,84,62,36,30.42,30.04,29,7,29,0.00
2013-2-17,66.0,47.1,26.7,34.2,27.9,21.4,84,53,24,30.04,29.53,37,11,37,0.00
2013-2-18,54.9,44.1,28.7,39.0,28.0,18.1,75,54,39,30.12,29.41,42,16,44,0.00
2013-2-19,40.2,29.9,20.8,18.6,15.0,6.2,80,56,36,30.38,30.12,19,6,19,0.00
2013-2-20,27.8,24.7,22.1,25.8,15.8,4.2,93,72,40,30.31,30.07,28,17,28,0.00
2013-2-21,23.2,21.2,15.5,21.3,19.3,13.2,93,92,88,30.08,29.77,30,13,30,0.00
2013-2-22,23.7,16.3,8.3,17.5,12.3,5.2,92,84,74,30.20,29.95,18,5,19,0.00
2013-2-23,34.3,20.4,6.1,30.1,15.8,3.3,92,82,67,30.17,29.97,15,5,15,0.00
2013-2-24,38.4,32.8,24.0,31.3,26.4,18.9,84,77,67,29.98,29.83,21,11,21,0.00
2013-2-25,34.7,32.4,30.2,31.7,30.2,28.8,97,92,84,29.94,29.75,34,17,34,0.00
2013-2-26,32.7,29.5,25.7,29.5,26.8,24.2,97,90,79,29.96,29.75,24,10,24,0.01
2013-2-27,37.0,31.2,27.3,28.6,26.4,22.9,94,83,66,30.21,29.96,28,9,28,0.00
2013-2-28,34.1,31.1,25.6,28.1,26.1,22.1,89,82,76,30.28,30.20,19,6,19,0.00
2013-3-1,32.7,28.8,20.6,25.9,22.9,16.4,88,79,67,30.39,30.25,20,7,24,0.00
2013-3-2,37.4,26.8,15.2,26.4,20.0,13.0,92,76,57,30.43,30.19,10,3,11,0.00
2013-3-3,48.0,39.2,30.6,37.6,31.0,23.5,81,73,60,30.19,29.63,20,10,21,0.00
2013-3-4,46.2,39.9,32.7,38.1,34.3,29.1,93,81,64,30.08,29.58,30,9,31,0.02
2013-3-5,40.7,33.3,27.1,32.2,21.1,16.4,82,61,46,30.42,30.08,35,11,35,0.00
2013-3-6,44.1,32.2,21.6,26.8,22.1,16.9,82,67,44,30.47,30.20,21,6,21,0.00
2013-3-7,63.3,46.5,32.3,32.8,28.5,24.9,75,53,28,30.20,30.00,29,15,30,0.00
2013-3-8,60.0,51.6,44.3,48.9,40.3,30.9,81,65,52,30.06,29.83,33,18,33,0.00
2013-3-9,58.4,53.2,43.2,56.5,51.5,41.4,99,94,79,29.85,29.50,36,14,37,0.91
2013-3-10,43.0,30.7,26.9,41.3,27.5,21.6,95,88,80,30.07,29.54,39,16,39,0.00
2013-3-11,45.6,33.1,21.1,26.2,20.7,15.7,84,63,37,30.08,29.99,20,6,20,0.00
2013-3-12,47.7,40.8,32.8,32.5,25.4,17.0,75,55,35,30.38,30.06,24,6,25,0.00
2013-3-13,53.6,40.0,25.3,33.3,25.3,17.0,80,57,36,30.48,30.23,23,7,23,0.00
2013-3-14,71.0,54.4,37.6,44.9,37.6,28.3,80,55,33,30.24,30.03,17,7,18,0.00
2013-3-15,82.2,63.1,46.3,50.5,45.0,37.1,81,55,20,30.03,29.62,25,8,26,0.00
2013-3-16,59.7,42.7,33.7,49.0,35.2,27.8,85,75,63,30.00,29.65,32,18,32,0.00
2013-3-17,38.5,35.4,33.1,34.8,31.3,27.3,96,85,79,30.01,29.72,28,10,28,0.00
2013-3-18,54.7,43.1,35.4,36.7,28.5,16.0,96,62,22,30.06,29.78,26,8,26,0.00
2013-3-19,49.1,37.8,27.0,31.2,24.8,17.3,91,61,36,30.31,30.05,21,8,22,0.00
2013-3-20,45.2,35.8,27.3,31.1,20.5,13.0,92,57,33,30.45,30.02,22,7,22,0.00
2013-3-21,46.6,36.8,32.6,30.1,21.1,14.2,90,55,33,30.02,29.74,38,20,39,0.00
2013-3-22,45.4,35.2,29.5,35.1,31.2,28.5,97,86,64,29.99,29.89,17,7,17,0.00
2013-3-23,33.9,31.9,28.7,32.1,30.6,27.6,97,95,89,30.00,29.86,32,14,36,0.02
2013-3-24,33.1,27.6,22.8,27.8,21.9,16.7,97,80,59,30.24,29.99,34,13,34,0.00
2013-3-25,32.5,26.9,22.5,21.3,18.6,17.0,86,71,54,30.44,30.23,23,8,24,0.00
2013-3-26,44.5,31.1,16.0,28.1,21.6,13.6,91,69,47,30.49,30.23,19,5,19,0.00
2013-3-27,58.3,45.0,33.9,36.6,30.3,25.1,86,58,38,30.23,30.08,26,10,26,0.00
2013-3-28,66.0,49.2,32.1,47.3,38.1,28.8,89,68,40,30.17,30.05,14,6,15,0.00
2013-3-29,69.5,56.9,42.3,54.7,49.0,40.1,94,77,52,30.13,29.97,23,10,23,0.00
2013-3-30,68.9,58.1,47.6,59.2,52.8,46.2,98,84,59,30.01,29.83,26,6,26,0.43
2013-3-31,63.2,53.3,43.3,46.9,41.5,33.8,96,67,35,30.02,29.91,28,6,31,0.06
2013-4-1,54.7,40.0,33.7,38.9,28.0,21.3,88,63,45,30.30,29.91,28,12,31,0.00
2013-4-2,43.8,38.4,34.7,29.7,24.6,20.4,71,58,47,30.32,30.22,20,7,20,0.00
2013-4-3,40.9,38.0,33.0,35.0,31.1,26.0,94,77,60,30.37,30.26,16,5,16,0.07
2013-4-4,59.6,46.7,37.7,43.3,38.2,33.7,92,74,46,30.26,30.09,11,3,11,0.00
2013-4-5,63.6,52.2,37.7,46.7,41.9,35.9,94,70,49,30.14,29.75,34,14,35,0.00
2013-4-6,72.8,61.8,52.6,49.9,45.1,39.4,77,57,30,29.81,29.65,45,12,45,0.00
2013-4-7,72.0,61.1,52.8,58.7,50.9,41.9,92,70,41,29.81,29.58,29,10,31,0.08
2013-4-8,71.7,64.2,58.4,62.6,59.6,57.3,96,86,65,29.63,29.51,28,12,28,0.00
2013-4-9,70.2,55.5,31.2,62.9,51.5,30.2,97,87,67,29.97,29.47,33,15,33,0.17
2013-4-10,31.6,30.0,28.9,30.6,28.7,27.3,96,95,94,30.04,29.78,19,3,19,0.00
2013-4-11,48.2,34.6,26.7,39.4,29.5,24.9,96,83,53,29.99,29.76,22,4,23,0.01
2013-4-12,55.6,41.1,29.0,38.1,31.7,25.4,87,71,46,30.04,29.88,21,5,21,0.00
2013-4-13,69.4,53.6,36.2,52.7,41.9,31.0,85,66,52,30.07,29.54,33,11,33,0.00
2013-4-14,67.9,61.3,51.7,55.5,44.0,27.8,72,55,25,29.70,29.37,43,16,43,0.00
2013-4-15,52.0,47.5,42.5,40.9,34.7,26.6,82,62,38,29.95,29.67,23,10,24,0.08
2013-4-16,45.8,42.3,40.2,39.4,33.3,29.8,93,71,62,30.09,29.91,30,16,30,0.01
2013-4-17,45.2,41.9,39.3,44.3,40.9,38.3,98,96,93,30.02,29.70,26,10,27,0.49
2013-4-18,39.3,35.4,31.8,38.3,30.5,25.9,97,83,66,30.09,29.71,37,14,37,0.06
2013-4-19,57.7,42.5,29.1,36.6,29.2,23.8,82,62,37,30.13,30.02,25,9,26,0.00
2013-4-20,59.7,48.1,35.0,43.0,35.6,28.5,78,63,44,30.12,29.98,27,14,27,0.00
2013-4-21,66.1,57.6,50.8,46.4,42.2,38.4,71,57,43,30.11,30.00,33,13,34,0.00
2013-4-22,65.0,52.2,35.0,55.3,45.2,32.9,93,78,65,30.07,29.82,37,10,37,0.06
2013-4-23,35.1,32.3,30.1,32.9,29.3,26.8,97,89,76,30.29,29.94,45,12,45,0.20
2013-4-24,56.3,41.2,25.9,35.5,29.8,23.9,93,67,33,30.33,30.19,18,5,18,0.00
2013-4-25,66.5,52.5,36.9,43.4,36.8,31.6,82,58,29,30.31,30.01,28,8,28,0.00
2013-4-26,58.4,51.4,49.3,49.4,46.4,35.3,97,84,42,30.13,30.02,32,10,32,0.22
2013-4-27,66.8,53.7,48.0,53.9,49.9,47.4,98,88,60,30.14,29.97,15,5,15,0.02
2013-4-28,77.6,61.2,46.0,60.5,52.7,45.1,98,77,46,29.98,29.69,24,10,24,0.01
2013-4-29,83.1,69.9,55.4,63.6,56.9,51.6,95,66,41,29.73,29.49,32,12,32,0.00
2013-4-30,81.5,72.0,62.6,63.1,57.4,51.7,80,61,45,29.67,29.55,37,18,38,0.00
2013-5-1,69.1,52.5,36.4,59.4,47.1,34.3,95,83,59,30.27,29.67,38,14,40,0.15
2013-5-2,49.0,39.1,33.2,37.6,32.8,25.5,98,81,46,30.51,30.24,37,14,37,0.44
2013-5-3,54.8,43.8,32.4,33.6,30.4,26.3,87,62,34,30.40,30.00,30,9,30,0.00
2013-5-4,46.9,42.4,39.4,40.9,35.7,27.5,94,78,56,30.12,29.92,33,11,33,0.00
2013-5-5,61.6,48.9,41.5,52.6,45.2,40.2,97,88,68,30.19,30.06,18,7,18,0.00
2013-5-6,50.6,45.1,40.3,48.9,44.1,39.5,98,97,92,30.14,30.08,12,2,12,0.00
2013-5-7,70.3,60.4,50.8,58.9,52.3,46.9,91,76,57,30.05,29.87,21,10,21,0.00
2013-5-8,75.3,64.1,56.5,65.9,58.5,52.3,98,83,63,29.97,29.71,58,11,58,1.13
2013-5-9,69.3,61.4,54.6,60.1,56.0,53.1,96,83,66,29.97,29.79,17,4,17,0.00
2013-5-10,67.8,59.4,52.5,55.3,52.5,50.1,97,79,56,30.07,29.94,20,6,20,0.00
2013-5-11,65.1,57.6,51.0,50.6,42.7,32.0,89,61,32,30.24,30.05,34,7,34,0.00
2013-5-12,66.8,54.2,43.1,48.0,40.1,31.1,77,60,40,30.29,30.05,22,7,24,0.03
2013-5-13,82.0,64.4,45.9,60.3,51.5,41.9,87,65,35,30.08,29.88,16,7,16,0.00
2013-5-14,88.5,74.5,59.9,58.0,53.1,48.2,72,50,28,29.88,29.71,32,12,32,0.00
2013-5-15,79.6,71.6,62.7,65.8,59.8,54.3,91,67,49,29.79,29.70,28,11,29,0.00
2013-5-16,76.8,67.5,60.7,63.3,61.1,58.5,98,81,57,29.81,29.71,18,6,18,0.00
2013-5-17,81.0,69.4,57.6,65.5,61.6,56.5,97,78,54,29.85,29.74,18,6,18,0.00
2013-5-18,81.8,73.1,63.0,72.7,68.2,58.6,96,85,64,29.80,29.56,37,11,37,0.40
2013-5-19,78.7,66.8,58.7,70.0,61.8,55.5,98,85,68,29.72,29.43,38,8,38,0.34
2013-5-20,74.5,66.0,56.8,61.0,56.8,51.0,90,73,56,29.73,29.58,14,3,14,0.00
2013-5-21,71.3,62.0,51.3,53.3,49.6,46.1,88,65,44,29.79,29.67,17,4,17,0.00
2013-5-22,73.3,61.1,50.5,56.0,51.2,46.8,88,71,49,29.91,29.76,19,5,20,0.00
2013-5-23,70.7,60.7,52.0,57.3,52.9,49.0,91,77,57,30.14,29.90,23,9,23,0.00
2013-5-24,74.5,65.3,54.9,66.2,59.4,52.8,93,82,70,30.17,29.98,26,12,26,0.00
2013-5-25,80.5,73.3,66.2,67.6,65.5,62.1,94,77,60,30.02,29.85,32,14,32,0.00
2013-5-26,81.4,72.8,66.3,70.6,67.2,63.5,92,83,68,29.92,29.73,32,15,32,0.00
2013-5-27,81.7,75.3,71.7,71.3,69.1,67.5,90,81,68,29.74,29.46,41,18,41,0.00
2013-5-28,84.7,75.8,70.3,74.0,69.3,66.5,91,81,68,29.62,29.46,38,16,38,0.00
2013-5-29,80.7,72.5,62.2,70.1,66.4,59.3,97,82,67,29.60,29.40,40,18,40,0.49
2013-5-30,77.8,65.7,57.4,65.7,60.4,57.1,99,84,56,29.67,29.45,30,8,30,1.38
2013-5-31,81.3,72.6,67.1,68.8,63.5,51.5,97,76,36,29.69,29.55,13,4,14,0.00
2013-6-1,68.2,62.5,55.2,60.8,52.7,48.3,82,70,61,30.02,29.67,20,6,21,0.00
2013-6-2,68.5,58.7,48.2,52.0,48.2,45.1,92,70,45,30.12,29.96,20,6,22,0.00
2013-6-3,77.8,64.5,51.3,62.1,54.8,49.4,95,73,47,29.98,29.71,29,11,29,0.00
2013-6-4,84.6,73.2,66.0,69.4,64.9,62.0,91,76,53,29.86,29.66,41,8,41,0.00
2013-6-5,68.7,65.1,59.1,66.7,61.4,56.0,98,88,71,29.97,29.79,22,6,24,0.62
2013-6-6,73.2,64.0,53.3,56.0,53.6,49.1,96,71,45,29.99,29.90,20,5,22,0.00
2013-6-7,77.9,66.0,53.6,59.0,54.6,50.9,91,69,45,29.99,29.82,12,3,12,0.00
2013-6-8,81.4,69.4,60.7,63.2,59.1,55.3,97,72,47,29.84,29.60,36,12,36,0.21
2013-6-9,85.8,72.2,58.6,62.6,58.0,52.8,97,65,33,29.83,29.73,21,4,24,0.00
2013-6-10,93.0,78.2,60.1,70.7,63.2,53.2,81,61,44,29.82,29.65,21,6,21,0.00
2013-6-11,96.0,83.9,70.8,67.8,61.2,54.1,70,49,27,29.75,29.61,40,14,40,0.00
2013-6-12,94.5,83.8,74.4,71.8,67.8,61.8,80,60,42,29.86,29.64,35,11,35,0.00
2013-6-13,87.3,72.6,-41.0,66.6,58.4,-51.6,85,63,40,30.01,29.86,23,10,25,0.00
2013-6-14,98.0,83.1,69.0,72.4,65.6,56.3,89,60,26,29.90,29.71,29,11,32,0.00
2013-6-15,90.2,79.6,71.2,68.9,65.1,57.9,82,63,34,29.86,29.71,34,9,34,0.00
2013-6-16,91.0,79.7,68.0,70.9,63.1,56.1,91,60,32,29.90,29.77,30,5,30,0.00
2013-6-17,82.8,73.7,64.8,70.9,65.6,61.0,98,78,49,29.93,29.73,23,7,24,0.97
2013-6-18,88.4,76.4,63.5,69.4,61.8,53.5,98,66,32,29.98,29.85,21,4,21,0.00
2013-6-19,85.7,75.9,65.1,67.3,63.7,59.1,88,68,45,29.91,29.79,26,9,27,0.00
2013-6-20,94.2,82.0,71.1,72.0,69.2,66.0,90,67,44,29.85,29.70,36,17,38,0.00
2013-6-21,96.3,85.4,76.2,71.5,68.0,64.8,73,58,37,29.81,29.72,37,18,37,0.00
2013-6-22,94.3,84.4,76.4,68.5,65.2,60.2,72,54,37,29.80,29.66,39,18,39,0.00
2013-6-23,94.5,84.1,77.2,68.0,65.7,60.1,72,55,35,29.77,29.65,33,16,35,0.00
2013-6-24,92.7,83.0,76.3,70.0,66.7,64.2,81,59,41,29.78,29.64,45,17,45,0.00
2013-6-25,96.7,85.0,76.6,72.4,68.5,65.6,78,60,38,29.72,29.53,52,19,52,0.00
2013-6-26,101.0,87.1,74.0,72.9,68.8,60.6,88,59,29,29.78,29.65,17,6,17,0.00
2013-6-27,103.5,84.0,66.8,74.6,71.3,59.1,97,70,32,29.86,29.66,45,7,53,0.79
2013-6-28,91.8,79.5,67.0,70.3,63.2,53.8,95,63,31,29.94,29.83,23,6,23,0.00
2013-6-29,87.3,76.4,65.0,61.3,55.0,48.3,78,51,30,29.90,29.79,30,7,30,0.00
2013-6-30,81.0,70.5,58.6,59.0,53.7,48.6,86,58,33,30.01,29.87,27,8,30,0.00
2013-7-1,81.3,68.9,55.5,55.4,50.0,44.1,88,56,29,30.10,30.01,23,7,24,0.00
2013-7-2,83.3,71.4,57.8,55.2,48.6,37.3,76,48,20,30.09,29.99,25,6,25,0.00
2013-7-3,85.0,72.8,61.0,55.5,50.2,44.5,75,47,26,30.04,29.87,18,4,18,0.00
2013-7-4,89.2,74.9,60.3,55.8,53.5,50.3,77,50,27,29.95,29.81,24,7,24,0.00
2013-7-5,90.5,79.7,67.7,60.8,57.8,53.6,75,50,29,29.86,29.73,39,14,39,0.00
2013-7-6,85.3,77.5,71.7,67.9,63.8,58.9,85,63,53,29.80,29.73,30,15,30,0.02
2013-7-7,98.0,86.0,75.4,66.3,62.4,58.7,73,47,28,29.85,29.75,33,16,33,0.03
2013-7-8,99.5,87.0,76.3,66.8,64.5,59.2,69,49,27,29.91,29.80,27,12,28,0.00
2013-7-9,105.3,89.8,75.7,69.7,66.1,60.3,73,49,24,29.89,29.70,31,12,31,0.01
2013-7-10,95.5,83.0,69.1,71.6,66.4,60.4,89,61,37,29.91,29.82,22,8,22,0.00
2013-7-11,91.2,79.4,68.4,69.8,64.0,60.3,92,60,37,30.01,29.82,28,10,29,0.02
2013-7-12,99.2,85.8,71.4,69.8,65.4,61.4,72,53,32,29.88,29.77,25,10,25,0.00
2013-7-13,96.8,86.7,76.3,70.4,68.9,65.7,76,57,39,29.85,29.74,25,11,26,0.00
2013-7-14,84.0,74.4,67.5,72.4,68.5,65.2,98,83,59,30.01,29.80,24,5,24,0.35
2013-7-15,81.8,71.3,63.8,73.6,64.3,59.6,97,80,53,30.11,30.00,27,6,27,0.79
2013-7-16,88.7,76.4,63.6,68.6,64.7,61.8,94,70,44,30.20,30.10,19,6,21,0.00
2013-7-17,91.3,79.0,67.0,70.7,68.0,63.1,96,72,42,30.23,30.09,18,4,18,0.00
2013-7-18,91.6,80.7,69.2,71.5,67.5,62.9,96,67,41,30.11,29.90,21,7,26,0.00
2013-7-19,95.0,83.1,70.3,69.5,66.3,62.2,88,60,35,29.93,29.75,22,8,23,0.00
2013-7-20,96.0,79.7,69.1,70.3,66.9,60.8,98,69,33,29.83,29.69,24,7,24,1.63
2013-7-21,87.3,76.7,69.5,72.9,70.3,67.6,97,82,60,29.81,29.70,19,7,19,0.08
2013-7-22,89.5,79.4,72.3,73.1,69.5,63.8,96,74,46,29.80,29.66,21,6,22,0.00
2013-7-23,92.0,79.7,67.8,71.7,68.0,62.3,97,69,42,29.85,29.69,31,9,32,0.22
2013-7-24,87.5,75.9,64.9,70.2,64.2,55.9,95,71,36,29.98,29.83,20,7,20,0.00
2013-7-25,84.3,74.8,68.3,73.5,67.2,61.0,94,78,60,29.98,29.90,20,5,21,0.07
2013-7-26,85.0,72.9,64.1,70.5,65.1,58.8,99,79,45,30.02,29.90,28,7,28,1.51
2013-7-27,72.8,65.0,58.0,60.1,56.6,53.9,91,75,56,30.08,29.92,23,6,26,0.09
2013-7-28,63.2,60.6,56.3,62.9,59.6,54.3,99,97,84,30.00,29.93,22,8,22,1.67
2013-7-29,73.1,68.0,61.5,72.8,66.7,60.1,100,95,88,29.96,29.81,23,9,28,4.74
2013-7-30,79.3,72.4,68.6,72.9,70.3,68.2,100,94,77,30.03,29.88,13,3,14,0.01
2013-7-31,85.0,74.6,64.6,73.2,68.5,64.2,100,83,55,30.08,29.97,11,2,11,0.00
2013-8-1,87.2,78.0,68.3,71.1,68.3,63.9,97,74,47,30.04,29.81,18,6,19,0.00
2013-8-2,89.1,78.3,65.4,77.2,71.4,62.9,98,80,65,29.85,29.72,36,9,37,0.70
2013-8-3,85.8,78.1,69.6,75.5,73.1,68.9,99,85,69,29.97,29.78,23,8,23,0.02
2013-8-4,80.5,74.0,69.6,74.6,71.7,69.3,99,93,76,30.02,29.89,31,7,31,2.22
2013-8-5,83.9,76.1,66.4,76.2,72.6,65.6,99,89,75,29.92,29.72,41,8,46,2.08
2013-8-6,70.8,69.7,68.8,68.9,68.5,68.0,99,96,93,29.80,29.73,14,5,14,0.01
2013-8-14,80.3,75.2,67.2,63.9,61.7,58.0,86,64,48,30.09,29.98,14,6,14,0.01
2013-8-15,81.7,69.2,60.4,69.9,63.4,58.6,98,83,63,30.03,29.85,35,7,40,0.98
2013-8-16,78.9,68.8,61.9,66.6,63.6,61.3,99,85,62,30.08,29.96,17,4,17,0.04
2013-8-17,77.8,69.2,61.0,64.2,61.3,59.3,94,77,56,30.11,30.00,16,6,17,0.00
2013-8-18,81.9,71.0,60.4,65.2,61.7,57.7,91,74,52,30.08,29.95,19,6,19,0.00
2013-8-19,85.8,75.4,66.3,69.0,65.8,62.9,90,74,54,30.01,29.88,23,8,23,0.00
2013-8-20,89.3,77.6,66.4,69.2,66.3,63.8,92,70,46,29.96,29.86,23,9,23,0.00
2013-8-21,91.2,78.8,66.7,67.9,65.8,63.6,92,67,42,29.95,29.88,24,9,25,0.00
2013-8-22,90.0,79.0,69.4,69.7,66.9,62.6,90,68,42,29.98,29.88,21,8,21,0.00
2013-8-23,90.0,80.7,71.4,74.0,70.8,68.5,92,73,50,29.96,29.84,22,8,22,0.00
2013-8-24,92.3,82.0,72.5,72.2,70.7,67.8,90,71,46,30.00,29.91,23,10,23,0.00
2013-8-25,93.0,82.2,72.4,72.9,70.0,67.4,90,69,45,30.07,29.97,21,10,23,0.00
2013-8-26,92.7,82.4,72.6,70.5,68.8,65.2,90,66,41,30.05,29.93,26,11,26,0.00
2013-8-27,93.0,81.3,70.2,68.3,65.2,58.7,91,62,33,29.96,29.88,26,10,27,0.00
2013-8-28,90.3,79.5,68.5,72.5,69.4,65.1,95,73,51,29.95,29.88,20,7,22,0.00
2013-8-29,97.6,85.0,74.2,72.3,66.9,60.4,84,59,30,29.92,29.83,22,8,22,0.00
2013-8-30,101.0,85.7,71.2,69.4,64.9,53.3,85,54,23,29.86,29.72,17,6,17,0.00
2013-8-31,99.0,84.8,72.0,76.6,70.6,65.7,92,65,35,29.77,29.65,17,6,21,0.00
2013-9-1,87.9,79.3,68.1,72.2,67.0,58.3,83,67,51,29.91,29.66,25,6,25,0.00
2013-9-2,84.3,72.3,59.9,62.7,58.7,55.4,88,65,42,30.02,29.91,17,4,17,0.00
2013-9-3,88.5,74.2,60.0,62.3,58.5,54.8,90,61,33,30.04,29.92,14,4,14,0.00
2013-9-4,89.5,76.1,62.2,61.3,57.9,52.8,85,57,30,30.08,29.97,17,5,17,0.00
2013-9-5,92.0,79.1,65.6,65.1,62.2,59.7,84,59,36,30.08,29.97,23,6,23,0.00
2013-9-6,95.3,82.2,69.4,66.4,64.2,61.5,79,57,34,30.01,29.84,21,9,21,0.00
2013-9-7,100.0,85.1,72.1,67.2,64.8,58.7,80,54,26,29.89,29.77,18,9,19,0.00
2013-9-8,99.2,84.9,71.6,67.6,63.3,58.4,76,52,28,29.82,29.72,21,8,22,0.00
2013-9-9,94.1,82.7,69.8,65.1,59.8,52.1,72,48,25,29.82,29.74,36,11,37,0.00
2013-9-10,93.7,82.2,72.3,65.7,61.1,56.3,69,50,32,29.97,29.82,30,12,31,0.00
2013-9-11,92.3,80.9,70.6,68.9,62.8,57.8,86,56,38,30.02,29.91,22,8,22,0.00
2013-9-12,74.6,71.5,68.7,71.5,69.2,65.3,98,93,83,30.09,30.00,16,5,16,0.96
2013-9-13,73.7,68.0,62.8,65.3,53.7,49.0,83,61,43,30.11,29.97,18,8,18,0.00
2013-9-14,81.0,70.2,59.7,63.5,57.8,51.6,78,65,53,30.00,29.83,22,9,22,0.00
2013-9-15,86.5,73.4,65.7,70.3,64.2,61.1,96,74,51,30.06,29.84,26,9,26,0.02
2013-9-16,65.6,62.3,60.7,63.0,61.5,60.1,99,97,89,30.12,30.04,22,10,23,0.03
2013-9-17,82.3,71.2,63.4,71.0,66.8,63.0,100,88,62,30.10,29.83,25,11,26,0.00
2013-9-18,92.2,79.6,69.2,69.1,65.8,61.1,90,66,38,29.86,29.67,38,16,38,0.00
2013-9-19,89.3,77.4,66.6,71.0,65.0,56.9,77,66,45,29.91,29.68,31,12,32,0.03
2013-9-20,74.0,64.5,57.0,57.5,50.3,45.4,85,62,38,30.05,29.91,21,7,22,0.00
2013-9-21,81.8,66.7,51.7,55.0,50.7,46.6,90,61,32,29.99,29.83,17,4,18,0.00
2013-9-22,78.6,67.1,55.0,55.2,51.1,46.7,90,60,34,29.88,29.73,26,12,28,0.00
2013-9-23,78.6,68.4,56.6,54.6,51.4,49.1,78,56,38,29.76,29.62,37,17,37,0.00
2013-9-24,75.0,66.2,58.7,57.3,54.3,50.8,85,66,49,29.85,29.70,26,8,26,0.00
2013-9-25,82.3,66.8,50.7,59.6,54.7,49.3,97,69,35,29.88,29.68,23,7,23,0.00
2013-9-26,90.4,76.6,64.0,62.7,58.1,54.8,76,56,34,29.72,29.63,34,18,37,0.00
2013-9-27,86.4,77.8,69.2,64.6,59.5,56.9,67,54,42,29.77,29.66,31,18,39,0.00
2013-9-28,76.8,63.2,52.3,68.7,51.7,41.8,94,68,38,30.06,29.63,35,9,35,0.40
2013-9-29,74.5,60.6,45.1,51.0,44.5,36.1,92,61,29,30.08,29.88,15,4,15,0.00
2013-9-30,79.6,65.5,51.8,53.7,50.8,48.3,88,62,35,29.90,29.73,20,9,24,0.00
2013-10-1,84.3,70.9,58.3,63.5,57.1,50.9,79,63,43,29.88,29.77,21,9,21,0.00
2013-10-2,82.6,73.3,66.0,70.1,66.6,61.9,98,81,60,29.89,29.74,28,12,29,0.00
2013-10-3,87.5,77.6,71.3,68.9,67.5,66.3,88,72,51,29.74,29.56,36,18,36,0.00
2013-10-4,88.7,74.3,52.7,69.3,59.8,32.8,84,63,31,29.93,29.58,42,17,43,0.01
2013-10-5,61.4,52.2,46.2,34.8,32.6,30.6,61,48,34,30.06,29.92,28,10,28,0.00
2013-10-6,67.7,54.6,45.8,39.9,31.9,22.1,58,44,18,30.05,29.95,28,7,29,0.00
2013-10-7,74.7,57.7,40.9,41.3,35.8,30.2,77,47,23,30.17,30.02,18,5,18,0.00
2013-10-8,76.5,62.8,50.5,49.8,44.0,39.9,71,53,31,30.04,29.88,32,15,33,0.00
2013-10-9,79.4,65.7,54.0,55.7,50.9,47.8,80,61,36,29.96,29.86,30,14,30,0.00
2013-10-10,80.2,68.7,59.2,59.5,56.5,53.1,81,66,48,29.92,29.69,32,16,33,0.00
2013-10-11,80.5,69.5,60.3,61.2,50.7,31.1,81,56,17,29.84,29.63,30,14,30,0.00
2013-10-12,69.8,58.2,45.7,45.2,38.7,30.8,82,52,24,30.22,29.84,21,8,22,0.00
2013-10-13,70.0,58.6,44.8,46.2,39.7,35.0,69,51,31,30.32,30.16,33,13,33,0.00
2013-10-14,63.1,60.6,55.9,61.5,54.2,42.9,98,81,49,30.16,29.73,33,14,33,0.34
2013-10-15,58.1,50.2,42.7,54.7,40.9,36.6,97,72,47,30.14,29.88,25,7,26,0.00
2013-10-16,54.2,45.9,37.6,39.1,36.8,34.3,92,72,50,30.17,30.03,15,4,15,0.00
2013-10-17,64.4,50.8,37.9,44.1,37.8,30.2,92,65,29,30.07,29.94,17,5,17,0.00
2013-10-18,45.4,37.4,32.8,38.6,34.2,31.5,97,89,75,30.18,30.05,22,5,22,0.30
2013-10-19,66.0,47.0,31.5,42.2,36.0,30.5,97,71,30,30.16,29.91,23,5,23,0.05
2013-10-20,68.7,54.5,42.6,43.9,40.5,36.1,78,61,38,29.95,29.78,18,6,20,0.00
2013-10-21,60.2,50.5,40.0,42.3,37.0,31.8,87,62,40,30.13,29.95,23,6,23,0.00
2013-10-22,67.2,54.2,44.8,44.9,40.4,37.6,81,62,37,30.10,29.96,27,6,27,0.00
2013-10-23,66.3,49.9,34.1,44.6,38.9,31.4,94,69,42,30.16,29.99,21,5,21,0.00
2013-10-24,51.9,43.8,36.9,40.1,32.2,24.3,91,66,36,30.43,30.15,21,7,22,0.00
2013-10-25,58.3,46.3,35.4,39.9,30.8,25.5,74,57,32,30.45,30.14,24,9,24,0.00
2013-10-26,63.1,52.1,41.5,47.0,35.4,23.0,85,58,23,30.18,30.08,24,7,25,0.00
2013-10-27,66.0,49.1,33.1,35.3,30.9,25.4,79,53,27,30.16,29.90,23,8,23,0.00
2013-10-28,63.5,56.4,47.7,56.5,51.2,32.1,97,83,52,30.03,29.92,24,13,24,0.00
2013-10-29,69.7,60.1,53.7,67.6,58.5,51.3,99,94,85,29.96,29.83,23,8,23,0.00
2013-10-30,57.7,52.3,48.8,57.4,51.6,47.7,99,98,92,29.91,29.69,16,4,16,0.00
2013-10-31,61.9,51.4,44.3,50.5,44.0,38.6,98,78,44,29.74,29.55,27,7,27,0.00
2013-11-1,60.4,50.2,40.6,43.0,38.6,35.1,84,66,43,30.11,29.74,27,6,27,0.00
2013-11-2,59.6,46.7,36.1,36.8,33.4,29.9,83,62,34,30.29,30.10,16,5,16,0.00
2013-11-3,61.2,51.6,43.3,41.4,36.9,32.3,69,58,43,30.10,29.74,49,22,49,0.00
2013-11-4,61.8,54.3,49.3,50.7,44.4,40.3,86,70,52,30.02,29.74,40,11,40,0.00
2013-11-5,59.4,53.2,37.9,59.1,51.9,35.8,99,95,86,30.04,29.78,30,11,31,0.00
2013-11-6,45.6,37.9,33.9,37.5,34.2,31.6,93,86,70,30.37,30.04,29,7,29,0.00
2013-11-7,57.2,44.6,33.5,38.9,35.1,30.9,93,72,45,30.47,30.28,15,3,15,0.00
2013-11-8,63.9,52.6,43.0,39.0,36.1,34.1,75,55,33,30.28,29.82,48,18,52,0.00
2013-11-9,63.6,51.2,40.6,43.2,38.2,35.6,86,63,39,30.27,29.94,21,6,21,0.00
2013-11-10,61.4,50.5,41.7,48.8,41.1,34.3,88,71,49,30.36,30.19,28,8,28,0.00
2013-11-11,54.9,44.8,27.0,51.9,41.0,15.3,95,87,61,30.66,30.14,30,9,30,0.00
2013-11-12,34.9,26.4,18.1,17.0,13.0,8.8,82,58,35,30.92,30.67,24,6,24,0.00
2013-11-13,49.2,36.1,24.3,28.4,20.1,14.9,71,53,40,30.72,30.17,34,14,34,0.00
2013-11-14,54.6,43.8,35.6,34.0,28.4,18.8,71,55,43,30.16,29.93,28,14,28,0.00
2013-11-15,58.6,47.4,34.6,48.2,38.9,30.1,85,73,53,29.94,29.61,32,12,32,0.00
2013-11-16,75.0,63.5,53.7,55.3,52.1,47.8,88,69,40,29.61,29.29,35,19,38,0.00
2013-11-17,63.7,54.5,41.7,47.8,28.5,9.9,68,41,13,30.12,29.29,42,10,44,0.00
2013-11-18,58.9,45.9,32.7,31.0,25.1,17.3,78,47,20,30.30,30.05,17,4,18,0.00
2013-11-19,59.9,50.2,39.3,35.5,29.3,26.4,65,46,29,30.21,29.83,38,17,39,0.00
2013-11-20,60.3,53.8,49.2,48.9,39.9,27.2,81,60,39,29.87,29.74,45,15,45,0.00
2013-11-21,52.4,34.6,22.7,49.1,31.5,18.9,94,88,78,30.55,29.86,28,11,28,0.01
2013-11-22,27.5,24.0,20.1,19.2,17.0,14.5,86,75,62,30.75,30.55,27,9,27,0.00
2013-11-23,30.0,26.3,17.9,20.1,16.1,10.1,77,65,54,30.85,30.70,22,7,25,0.00
2013-11-24,27.5,22.3,16.0,14.6,9.7,3.3,79,60,35,30.80,30.34,19,7,19,0.00
2013-11-25,35.8,29.9,26.5,26.9,21.7,13.8,88,72,58,30.35,30.23,19,6,19,0.00
2013-11-26,37.2,28.8,19.3,26.0,18.3,8.4,88,66,35,30.50,30.26,32,7,32,0.00
2013-11-27,19.3,16.0,13.2,12.4,8.3,7.6,79,72,63,30.50,30.48,4,0,4,0.00
2013-11-28,43.0,32.1,24.0,26.2,22.6,19.8,86,69,50,30.48,30.19,21,10,21,0.00
2013-11-29,34.1,25.5,23.9,26.7,20.4,19.2,84,81,74,30.49,30.44,17,8,17,0.00
2013-12-3,43.1,42.0,40.7,41.3,39.5,36.8,94,91,86,29.56,29.54,10,4,12,0.00
2013-12-4,40.7,27.2,19.6,36.5,22.6,9.4,95,83,60,30.17,29.52,27,12,27,0.00
2013-12-5,19.7,15.5,12.8,9.9,5.3,1.4,86,64,52,30.50,30.17,27,10,27,0.00
2013-12-6,17.6,12.2,6.6,9.3,0.3,-2.9,86,59,42,30.74,30.44,23,8,23,0.00
2013-12-7,20.2,12.0,1.8,6.4,0.8,-3.2,80,61,46,30.79,30.36,23,9,23,0.00
2013-12-8,21.6,19.2,12.5,19.5,15.1,6.3,92,84,57,30.36,30.01,19,7,19,0.00
2013-12-9,15.9,12.0,8.3,9.5,4.3,1.2,89,72,57,30.50,30.28,16,4,16,0.00
2013-12-10,41.7,25.0,10.3,19.1,11.0,3.3,78,58,28,30.44,30.19,21,7,21,0.00
2013-12-11,26.9,22.7,16.0,20.4,9.2,-2.4,84,59,28,30.68,30.26,26,7,27,0.00
2013-12-12,45.9,29.9,16.2,23.7,15.3,0.7,77,56,38,30.63,30.14,25,11,26,0.00
2013-12-13,46.7,38.5,29.6,36.6,32.0,23.4,85,77,67,30.14,29.77,27,11,27,0.00
2013-12-14,31.8,28.7,25.4,27.5,24.8,21.3,86,85,83,30.05,29.95,27,14,28,0.00
2013-12-15,58.7,48.2,40.2,25.7,24.1,22.9,50,39,27,30.07,30.05,17,5,17,0.00
2013-12-16,61.9,45.9,33.4,28.4,24.8,21.3,61,45,27,30.15,30.02,13,3,13,0.00
2013-12-17,52.4,40.3,26.9,31.6,24.9,20.5,88,57,33,30.35,30.14,24,5,28,0.00
2013-12-18,37.7,35.7,34.0,27.3,25.6,21.6,69,67,55,30.22,30.03,18,8,20,0.00
2013-12-19,35.5,35.5,35.5,26.3,26.3,26.3,69,69,69,30.03,30.03,7,7,14,0.00
2013-12-20,35.5,35.5,35.5,26.3,26.3,26.3,69,69,69,30.03,30.03,7,7,14,0.00
2013-12-21,35.5,27.2,21.4,26.3,22.2,16.8,93,82,69,30.03,29.67,22,8,22,0.00
2013-12-22,24.7,19.4,9.7,21.1,15.9,7.2,93,86,71,30.43,29.88,22,5,23,0.00
2013-12-23,17.4,12.9,5.0,11.5,8.5,2.1,92,82,76,30.71,30.43,19,4,19,0.00
2013-12-24,14.8,14.8,14.8,9.2,9.2,9.2,78,78,78,30.67,30.67,0,0,0,0.00
2013-12-25,37.7,15.6,14.8,29.3,9.9,9.2,78,78,71,30.67,30.39,9,0,9,0.01
2013-12-26,43.1,32.7,23.4,31.4,26.5,20.1,92,78,60,30.40,30.24,24,6,24,0.00
2013-12-27,48.3,35.8,24.7,32.5,28.4,22.6,94,76,51,30.39,30.21,13,4,13,0.00
2013-12-28,50.1,40.0,31.5,37.6,32.4,27.2,87,75,56,30.21,29.86,32,9,32,0.00
2013-12-29,36.1,17.3,10.3,31.2,7.5,-0.4,87,66,46,30.42,30.01,35,11,35,0.00
2013-12-30,35.5,22.1,9.2,22.0,11.7,1.9,78,64,52,30.42,30.30,20,6,21,0.00
2013-12-31,51.4,37.3,24.2,29.9,25.2,18.7,84,64,39,30.40,30.04,35,12,35,0.00
2014-1-1,37.7,22.1,10.1,28.5,17.3,5.4,90,82,69,30.44,29.96,33,11,33,0.00
2014-1-2,27.7,16.4,5.0,19.7,10.9,1.5,86,79,65,30.56,30.44,17,5,17,0.00